createdAt,value
2024-05-09T00:01:30.334Z,100.00
2024-05-09T00:06:35.164Z,100.00
2024-05-09T00:11:42.743Z,100.00
2024-05-09T00:16:48.515Z,100.00
2024-05-09T00:21:53.514Z,100.00
2024-05-09T00:27:00.990Z,100.00
2024-05-09T00:32:09.586Z,100.00
2024-05-09T00:37:14.323Z,100.00
2024-05-09T00:42:21.644Z,100.00
2024-05-09T00:47:26.760Z,100.00
2024-05-09T00:52:32.689Z,100.00
2024-05-09T00:57:40.611Z,100.00
2024-05-09T01:02:45.384Z,100.00
2024-05-09T01:07:50.291Z,100.00
2024-05-09T01:12:58.049Z,100.00
2024-05-09T01:18:04.482Z,100.00
2024-05-09T01:23:12.638Z,100.00
2024-05-09T01:28:18.204Z,100.00
2024-05-09T01:33:23.121Z,100.00
2024-05-09T01:38:30.741Z,100.00
2024-05-09T01:43:35.579Z,100.00
2024-05-09T01:48:40.350Z,100.00
2024-05-09T01:53:48.346Z,100.00
2024-05-09T01:58:53.073Z,100.00
2024-05-09T02:04:00.905Z,100.00
2024-05-09T02:09:08.322Z,100.00
2024-05-09T02:14:13.444Z,100.00
2024-05-09T02:19:18.536Z,100.00
2024-05-09T02:24:26.233Z,100.00
2024-05-09T02:29:31.141Z,100.00
2024-05-09T02:34:36.003Z,100.00
2024-05-09T02:39:43.460Z,100.00
2024-05-09T02:44:48.281Z,100.00
2024-05-09T02:49:53.096Z,100.00
2024-05-09T02:55:00.494Z,100.00
2024-05-09T03:00:07.635Z,100.00
2024-05-09T03:05:12.899Z,100.00
2024-05-09T03:10:25.560Z,100.00
2024-05-09T03:15:33.652Z,100.00
2024-05-09T03:20:39.236Z,100.00
2024-05-09T03:25:46.946Z,100.00
2024-05-09T03:30:52.121Z,100.00
2024-05-09T03:35:56.870Z,100.00
2024-05-09T03:41:04.252Z,100.00
2024-05-09T03:46:09.064Z,100.00
2024-05-09T03:51:13.911Z,100.00
2024-05-09T03:56:21.389Z,100.00
2024-05-09T04:01:26.794Z,100.00
2024-05-09T04:06:31.751Z,100.00
2024-05-09T04:11:39.259Z,100.00
2024-05-09T04:16:44.471Z,100.00
2024-05-09T04:21:49.316Z,100.00
2024-05-09T04:26:56.766Z,100.00
2024-05-09T04:32:01.672Z,100.00
2024-05-09T04:37:07.250Z,100.00
2024-05-09T04:42:14.808Z,100.00
2024-05-09T04:47:19.775Z,100.00
2024-05-09T04:52:25.132Z,100.00
2024-05-09T04:57:32.623Z,100.00
2024-05-09T05:02:37.601Z,100.00
2024-05-09T05:07:42.694Z,100.00
2024-05-09T05:13:23.298Z,100.00
2024-05-09T05:18:39.037Z,100.00
2024-05-09T05:23:53.762Z,100.00
2024-05-09T05:29:12.154Z,100.00
2024-05-09T05:34:26.290Z,100.00
2024-05-09T05:39:41.995Z,100.00
2024-05-09T05:45:00.771Z,100.00
2024-05-09T05:50:27.487Z,100.00
2024-05-09T05:55:54.768Z,100.00
2024-05-09T06:01:14.532Z,100.00
2024-05-09T06:06:31.833Z,100.00
2024-05-09T06:11:52.063Z,100.00
2024-05-09T06:17:13.280Z,100.00
2024-05-09T06:22:30.037Z,100.00
2024-05-09T06:27:44.686Z,100.00
2024-05-09T06:33:02.197Z,100.00
2024-05-09T06:38:18.628Z,100.00
2024-05-09T06:43:39.480Z,100.00
2024-05-09T06:49:00.237Z,100.00
2024-05-09T06:54:17.936Z,100.00
2024-05-09T06:59:33.982Z,100.00
2024-05-09T07:04:56.102Z,100.00
2024-05-09T07:10:21.572Z,100.00
2024-05-09T07:15:42.132Z,100.00
2024-05-09T07:21:03.132Z,100.00
2024-05-09T07:26:18.411Z,100.00
2024-05-09T07:31:35.002Z,100.00
2024-05-09T07:36:56.109Z,100.00
2024-05-09T07:42:11.531Z,100.00
2024-05-09T07:48:57.201Z,100.00
2024-05-09T07:53:36.618Z,100.00
2024-05-09T07:58:44.004Z,100.00
2024-05-09T08:04:00.691Z,100.00
2024-05-09T08:09:22.139Z,100.00
2024-05-09T08:14:45.425Z,100.00
2024-05-09T08:19:59.159Z,100.00
2024-05-09T08:25:21.112Z,100.00
2024-05-09T08:30:38.209Z,100.00
2024-05-09T08:35:52.678Z,100.00
2024-05-09T08:41:14.081Z,100.00
2024-05-09T08:46:39.807Z,100.00
2024-05-09T08:51:55.551Z,100.00
2024-05-09T08:57:18.767Z,100.00
2024-05-09T09:02:34.653Z,100.00
2024-05-09T09:07:53.650Z,100.00
2024-05-09T09:13:17.476Z,100.00
2024-05-09T09:18:35.248Z,100.00
2024-05-09T09:23:54.576Z,100.00
2024-05-09T09:29:15.007Z,100.00
2024-05-09T09:34:35.588Z,100.00
2024-05-09T09:39:48.971Z,100.00
2024-05-09T09:45:04.945Z,100.00
2024-05-09T09:50:16.790Z,100.00
2024-05-09T09:55:26.340Z,100.00
2024-05-09T10:00:35.024Z,100.00
2024-05-09T10:05:42.199Z,100.00
2024-05-09T10:10:50.131Z,100.00
2024-05-09T10:15:58.055Z,100.00
2024-05-09T10:21:02.889Z,100.00
2024-05-09T10:26:07.892Z,76.17
2024-05-09T10:31:18.196Z,100.00
2024-05-09T10:36:24.664Z,90.31
2024-05-09T10:41:29.477Z,100.00
2024-05-09T10:46:36.978Z,97.20
2024-05-09T10:51:42.246Z,100.00
2024-05-09T10:56:47.153Z,95.22
2024-05-09T11:01:55.183Z,75.92
2024-05-09T11:07:04.560Z,85.79
2024-05-09T11:12:10.901Z,91.66
2024-05-09T11:17:18.464Z,92.86
2024-05-09T11:22:25.225Z,98.60
2024-05-09T11:27:30.096Z,100.00
2024-05-09T11:32:40.498Z,91.77
2024-05-09T11:37:45.367Z,84.79
2024-05-09T11:42:52.961Z,86.04
2024-05-09T11:48:00.962Z,66.09
2024-05-09T11:53:05.843Z,78.60
2024-05-09T11:58:12.540Z,89.44
2024-05-09T12:03:20.844Z,70.67
2024-05-09T12:08:25.993Z,75.15
2024-05-09T12:13:31.036Z,72.84
2024-05-09T12:18:38.498Z,80.19
2024-05-09T12:23:43.421Z,76.65
2024-05-09T12:28:48.262Z,75.95
2024-05-09T12:33:56.034Z,69.84
2024-05-09T12:39:01.046Z,83.36
2024-05-09T12:44:05.858Z,70.05
2024-05-09T12:49:17.254Z,77.47
2024-05-09T12:54:22.944Z,74.33
2024-05-09T12:59:27.893Z,84.60
2024-05-09T13:04:35.526Z,90.43
2024-05-09T13:09:40.677Z,85.62
2024-05-09T13:14:45.469Z,80.32
2024-05-09T13:19:53.027Z,90.49
2024-05-09T13:24:57.749Z,83.77
2024-05-09T13:30:02.484Z,100.00
2024-05-09T13:35:10.919Z,84.67
2024-05-09T13:40:23.265Z,91.53
2024-05-09T13:45:32.266Z,98.00
2024-05-09T13:50:39.858Z,100.00
2024-05-09T13:55:44.566Z,96.86
2024-05-09T14:00:50.620Z,100.00
2024-05-09T14:05:58.764Z,100.00
2024-05-09T14:11:03.715Z,95.52
2024-05-09T14:16:09.677Z,100.00
2024-05-09T14:21:17.199Z,100.00
2024-05-09T14:26:22.036Z,99.07
2024-05-09T14:31:27.028Z,87.85
2024-05-09T14:36:35.655Z,91.93
2024-05-09T14:41:41.579Z,100.00
2024-05-09T14:46:46.533Z,100.00
2024-05-09T14:51:54.100Z,99.09
2024-05-09T14:56:59.011Z,97.26
2024-05-09T15:02:03.988Z,100.00
2024-05-09T15:08:02.564Z,100.00
2024-05-09T15:13:29.122Z,100.00
2024-05-09T15:18:34.260Z,100.00
2024-05-09T15:23:39.325Z,100.00
2024-05-09T15:28:46.740Z,100.00
2024-05-09T15:33:51.764Z,100.00
2024-05-09T15:38:58.062Z,100.00
2024-05-09T15:44:05.579Z,100.00
2024-05-09T15:49:12.047Z,100.00
2024-05-09T15:54:16.966Z,100.00
2024-05-09T15:59:24.473Z,100.00
2024-05-09T16:04:29.578Z,100.00
2024-05-09T16:09:34.587Z,100.00
2024-05-09T16:14:42.195Z,100.00
2024-05-09T16:19:47.183Z,100.00
2024-05-09T16:24:52.037Z,100.00
2024-05-09T16:30:04.139Z,100.00
2024-05-09T16:35:11.565Z,100.00
2024-05-09T16:40:25.304Z,100.00
2024-05-09T16:45:44.103Z,100.00
2024-05-09T16:50:49.049Z,100.00
2024-05-09T16:55:54.758Z,100.00
2024-05-09T17:01:02.295Z,100.00
2024-05-09T17:06:07.273Z,100.00
2024-05-09T17:11:13.299Z,100.00
2024-05-09T17:16:21.079Z,100.00
2024-05-09T17:21:26.259Z,100.00
2024-05-09T17:26:32.504Z,100.00
2024-05-09T17:31:39.908Z,100.00
2024-05-09T17:36:45.012Z,100.00
2024-05-09T17:41:49.794Z,100.00
2024-05-09T17:47:02.499Z,100.00
2024-05-09T17:58:49.219Z,100.00
2024-05-09T18:03:56.837Z,100.00
2024-05-09T18:09:01.674Z,100.00
2024-05-09T18:14:06.778Z,100.00
2024-05-09T18:19:17.594Z,100.00
2024-05-09T18:24:23.074Z,100.00
2024-05-09T18:29:28.000Z,100.00
2024-05-09T18:34:35.582Z,100.00
2024-05-09T18:45:46.078Z,100.00
2024-05-09T18:50:54.242Z,100.00
2024-05-09T18:55:59.415Z,100.00
2024-05-09T19:01:04.611Z,100.00
2024-05-09T19:06:12.130Z,100.00
2024-05-09T19:11:16.964Z,100.00
2024-05-09T19:16:25.085Z,100.00
2024-05-09T19:21:32.857Z,100.00
2024-05-09T19:26:37.912Z,100.00
2024-05-09T19:31:45.456Z,100.00
2024-05-09T19:36:53.031Z,100.00
2024-05-09T19:41:57.872Z,100.00
2024-05-09T19:47:02.605Z,100.00
2024-05-09T19:52:10.414Z,100.00
2024-05-09T19:57:15.533Z,100.00
2024-05-09T20:02:20.915Z,100.00
2024-05-09T20:07:28.564Z,100.00
2024-05-09T20:12:33.374Z,100.00
2024-05-09T20:17:38.158Z,100.00
2024-05-09T20:22:45.755Z,100.00
2024-05-09T20:27:50.544Z,100.00
2024-05-09T20:32:55.430Z,100.00
2024-05-09T20:38:05.949Z,100.00
2024-05-09T20:43:11.812Z,100.00
2024-05-09T20:48:17.027Z,100.00
2024-05-09T20:53:24.595Z,100.00
2024-05-09T20:58:30.663Z,100.00
2024-05-09T21:03:38.219Z,100.00
2024-05-09T21:08:45.783Z,100.00
2024-05-09T21:13:50.536Z,100.00
2024-05-09T21:18:55.349Z,100.00
2024-05-09T21:24:02.892Z,100.00
2024-05-09T21:29:07.670Z,100.00
2024-05-09T21:34:12.670Z,100.00
2024-05-09T21:39:20.070Z,100.00
2024-05-09T21:44:24.905Z,100.00
2024-05-09T21:49:29.822Z,100.00
2024-05-09T21:54:37.396Z,100.00
2024-05-09T21:59:42.565Z,100.00
2024-05-09T22:04:47.785Z,100.00
2024-05-09T22:09:55.297Z,100.00
2024-05-09T22:15:03.303Z,100.00
2024-05-09T22:20:17.906Z,100.00
2024-05-09T22:25:31.088Z,100.00
2024-05-09T22:30:39.436Z,100.00
2024-05-09T22:35:45.402Z,100.00
2024-05-09T22:40:53.244Z,100.00
2024-05-09T22:45:58.111Z,100.00
2024-05-09T22:51:02.850Z,100.00
2024-05-09T22:56:10.940Z,100.00
2024-05-09T23:01:17.886Z,100.00
2024-05-09T23:06:22.776Z,100.00
2024-05-09T23:11:30.262Z,100.00
2024-05-09T23:16:35.112Z,100.00
2024-05-09T23:21:41.519Z,100.00
2024-05-09T23:26:48.951Z,100.00
2024-05-09T23:31:53.879Z,100.00
2024-05-09T23:36:58.669Z,100.00
2024-05-09T23:42:06.774Z,100.00
2024-05-09T23:47:11.671Z,100.00
2024-05-09T23:52:16.646Z,100.00
2024-05-09T23:57:24.489Z,100.00
